Island City, Indiana
Current Conditions -  °F | °C
As of 5:55 AM on Friday 19 Dec 2014 (Local Time) from KDCY Reporting Station
Clear Clear  
Wind Chill: -4°   Ceiling: Unl
Heat Index: -4°   Visibility: 7mi
Dew Point: -6°   Wind: 3mph
Humidity: 88%   Direction: 350°N
Pressure: 30.3"   Gusts: NA
Location:  39.0608°N, 87.1852°W
Report Text: KDCY 191055Z AUTO 35003KT 7SM CLR M04/M06 A3030 RMK AO2 T10401057
Loading
Personal Weather Stations






























Interactive Weather Map New forecast layout! Learn more

10-Day Weather Forecast

Advertisements
Track Severe Weather on mobile